Time;durP1;ratioP1;P1;durP2;ratioP2;P2;SDS_P1;SDS_P2;PMS_P1;PMS_P2;Temp;Humidity;BMP_temperature;BMP_pressure;BME280_temperature;BME280_humidity;BME280_pressure;Samples;Min_cycle;Max_cycle;Signal;HPM_P1;HPM_P2
2021/06/14 00:01:35;;;;;;;5.28;3.25;;;;;;;23.18;41.38;102486.00;4977877;28;20037;-90
2021/06/14 00:04:00;;;;;;;4.13;3.10;;;;;;;23.17;41.60;102484.28;4977410;28;20084;-90
2021/06/14 00:06:26;;;;;;;5.75;3.45;;;;;;;23.17;41.47;102478.16;4994269;28;20022;-90
2021/06/14 00:08:51;;;;;;;4.22;3.13;;;;;;;23.16;41.21;102477.25;4997852;28;20038;-90
2021/06/14 00:11:17;;;;;;;5.88;3.22;;;;;;;23.17;41.26;102478.16;4997419;28;20034;-88
2021/06/14 00:13:43;;;;;;;4.15;3.00;;;;;;;23.18;41.57;102472.00;4987543;28;20470;-90
2021/06/14 00:16:09;;;;;;;4.45;3.20;;;;;;;23.15;41.30;102462.41;4996316;28;20049;-90
2021/06/14 00:18:35;;;;;;;4.78;3.22;;;;;;;23.15;41.27;102462.41;4996338;28;20022;-90
2021/06/14 00:21:06;;;;;;;3.50;3.00;;;;;;;23.16;41.59;102458.00;4996523;28;20374;-90
2021/06/14 00:23:32;;;;;;;4.90;3.00;;;;;;;23.17;41.69;102457.16;4997904;28;20083;-89
2021/06/14 00:25:59;;;;;;;5.80;3.70;;;;;;;23.15;41.46;102454.53;4996904;28;20473;-90
2021/06/14 00:28:25;;;;;;;3.42;2.85;;;;;;;23.16;41.54;102456.25;4980954;28;20488;-90
2021/06/14 00:30:52;;;;;;;4.90;3.38;;;;;;;23.15;41.27;102451.03;4997510;28;20084;-89
2021/06/14 00:33:18;;;;;;;5.43;3.50;;;;;;;23.14;41.33;102442.25;4997016;28;20023;-90
2021/06/14 00:35:45;;;;;;;5.97;3.30;;;;;;;23.15;41.33;102438.75;4981106;28;20205;-90
2021/06/14 00:38:12;;;;;;;6.45;3.15;;;;;;;23.14;41.62;102439.63;4997535;28;20092;-89
2021/06/14 00:40:37;;;;;;;6.53;2.92;;;;;;;23.12;41.23;102430.03;4981206;28;20026;-89
2021/06/14 00:43:05;;;;;;;5.38;3.33;;;;;;;23.14;41.31;102425.63;4982736;28;20485;-90
2021/06/14 00:45:33;;;;;;;4.88;3.28;;;;;;;23.14;41.47;102420.38;5000562;28;20077;-89
2021/06/14 00:48:00;;;;;;;4.90;3.30;;;;;;;23.12;41.61;102415.13;4990786;28;20080;-89
2021/06/14 00:50:41;;;;;;;4.82;3.15;;;;;;;23.11;41.63;102415.16;5001439;28;20053;-91
2021/06/14 00:53:13;;;;;;;3.90;3.10;;;;;;;23.11;41.57;102405.53;5002141;28;20023;-88
2021/06/14 00:55:41;;;;;;;6.13;3.38;;;;;;;23.11;41.78;102408.16;5013529;28;20043;-90
2021/06/14 00:58:07;;;;;;;4.30;3.15;;;;;;;23.09;41.41;102404.66;5002924;28;20042;-90
2021/06/14 01:00:33;;;;;;;4.35;2.92;;;;;;;23.09;41.71;102401.19;4998728;28;20037;-91
2021/06/14 01:02:59;;;;;;;5.35;2.97;;;;;;;23.10;41.67;102400.28;4981192;28;20030;-91
2021/06/14 01:05:26;;;;;;;5.22;3.00;;;;;;;23.08;41.48;102400.31;4996511;28;20030;-92
2021/06/14 01:07:52;;;;;;;3.95;3.00;;;;;;;23.09;41.78;102399.41;4996690;28;20085;-91
2021/06/14 01:10:18;;;;;;;4.30;2.70;;;;;;;23.09;41.66;102390.69;4979894;28;20023;-92
2021/06/14 01:13:08;;;;;;;5.10;3.10;;;;;;;23.09;41.90;102386.28;4996993;28;20480;-92
2021/06/14 01:16:06;;;;;;;4.75;3.05;;;;;;;23.08;41.66;102387.19;4996074;28;20026;-89
2021/06/14 01:18:41;;;;;;;6.18;2.92;;;;;;;23.08;41.44;102378.41;4994960;28;20522;-91
2021/06/14 01:21:15;;;;;;;4.53;2.83;;;;;;;23.07;41.47;102376.69;4996513;28;20662;-91
2021/06/14 01:23:51;;;;;;;5.68;3.08;;;;;;;23.08;41.59;102373.16;4996102;28;20025;-91
2021/06/14 01:26:21;;;;;;;6.80;3.08;;;;;;;23.07;41.88;102369.66;4997905;28;20113;-91
2021/06/14 01:28:55;;;;;;;4.05;2.97;;;;;;;23.07;41.79;102364.41;4996192;28;20027;-92
2021/06/14 01:31:22;;;;;;;6.60;3.10;;;;;;;23.05;41.88;102354.81;4996341;28;20027;-92
2021/06/14 01:33:49;;;;;;;5.45;3.10;;;;;;;23.07;41.56;102369.66;4996130;28;20049;-90
2021/06/14 01:36:25;;;;;;;6.15;3.33;;;;;;;23.06;41.47;102364.41;4997760;28;20023;-90
2021/06/14 01:38:51;;;;;;;5.10;3.20;;;;;;;23.06;41.60;102364.41;5007471;28;20049;-90
2021/06/14 01:41:19;;;;;;;5.75;3.40;;;;;;;23.05;41.82;102365.31;5005233;28;20472;-91
2021/06/14 01:43:47;;;;;;;4.38;3.20;;;;;;;23.04;41.94;102359.22;4995734;28;20022;-90
2021/06/14 01:46:17;;;;;;;6.15;3.13;;;;;;;23.06;41.67;102357.44;4995839;28;20038;-91
2021/06/14 01:48:44;;;;;;;5.55;3.20;;;;;;;23.04;41.69;102358.31;4995676;28;20030;-90
2021/06/14 01:51:16;;;;;;;5.47;3.40;;;;;;;23.04;41.82;102353.97;4979885;28;20084;-92
2021/06/14 01:54:02;;;;;;;6.05;3.50;;;;;;;23.04;41.96;102348.72;4995260;28;20022;-89
2021/06/14 01:56:29;;;;;;;5.97;3.10;;;;;;;23.04;41.96;102340.84;4996217;28;20039;-92
2021/06/14 01:58:55;;;;;;;6.50;3.40;;;;;;;23.04;41.91;102345.19;4995015;28;20026;-91
2021/06/14 02:01:20;;;;;;;4.95;2.85;;;;;;;23.03;41.77;102346.94;4978784;28;20028;-92
2021/06/14 02:03:47;;;;;;;5.10;3.20;;;;;;;23.04;42.06;102339.94;4995162;28;20026;-89
2021/06/14 02:06:14;;;;;;;4.70;3.35;;;;;;;23.03;41.91;102341.69;4994460;28;20018;-89
2021/06/14 02:08:39;;;;;;;5.95;3.30;;;;;;;23.02;41.70;102341.69;4994810;28;20026;-89
2021/06/14 02:11:05;;;;;;;6.43;3.40;;;;;;;23.03;41.61;102339.06;4994597;28;20371;-90
2021/06/14 02:13:31;;;;;;;4.68;3.28;;;;;;;23.03;41.77;102336.44;4995380;28;20034;-89
2021/06/14 02:15:56;;;;;;;7.10;3.75;;;;;;;23.03;41.78;102346.94;5005230;28;20026;-90
2021/06/14 02:18:23;;;;;;;6.47;3.67;;;;;;;23.03;42.11;102348.72;5006326;28;20041;-90
2021/06/14 02:20:49;;;;;;;5.57;3.33;;;;;;;23.03;41.59;102346.09;5006454;28;20026;-89
2021/06/14 02:23:15;;;;;;;5.95;3.40;;;;;;;23.03;41.83;102348.72;4991339;28;20041;-89
2021/06/14 02:25:41;;;;;;;4.30;3.22;;;;;;;23.02;41.75;102339.06;4994794;28;20061;-89
2021/06/14 02:28:06;;;;;;;4.63;3.70;;;;;;;23.00;41.56;102333.84;4994245;28;20105;-89
2021/06/14 02:30:32;;;;;;;4.63;3.30;;;;;;;22.99;41.95;102335.59;4977763;28;20117;-90
2021/06/14 02:32:58;;;;;;;7.45;3.60;;;;;;;23.00;41.91;102336.47;4994127;28;20096;-90
2021/06/14 02:35:24;;;;;;;4.82;3.28;;;;;;;22.99;41.77;102334.69;4993839;28;20029;-90
2021/06/14 02:37:54;;;;;;;4.43;3.28;;;;;;;22.98;41.57;102335.59;4994464;28;20109;-89
2021/06/14 02:40:23;;;;;;;6.90;3.35;;;;;;;22.97;41.88;102324.22;4994286;28;20026;-89
2021/06/14 02:42:49;;;;;;;6.97;3.67;;;;;;;22.97;41.51;102328.59;4994222;28;20064;-90
2021/06/14 02:45:15;;;;;;;5.28;3.35;;;;;;;22.98;41.72;102327.72;4993843;28;20365;-90
2021/06/14 02:47:43;;;;;;;5.15;3.17;;;;;;;23.00;42.04;102328.59;4993437;28;20022;-90
2021/06/14 02:50:09;;;;;;;5.60;3.63;;;;;;;22.96;42.00;102327.72;4993634;28;20030;-90
2021/06/14 02:52:37;;;;;;;3.90;3.03;;;;;;;22.97;41.85;102324.22;4962251;28;20038;-89
2021/06/14 02:55:15;;;;;;;4.47;3.30;;;;;;;22.96;41.85;102329.47;4977834;28;20142;-90
2021/06/14 02:57:47;;;;;;;6.25;3.05;;;;;;;22.95;42.07;102333.88;4995100;28;20022;-89
2021/06/14 03:00:13;;;;;;;5.43;3.40;;;;;;;22.93;41.72;102330.38;4994813;28;20117;-90
2021/06/14 03:02:40;;;;;;;4.47;3.00;;;;;;;22.93;42.09;102334.75;4980591;28;20034;-89
2021/06/14 03:05:07;;;;;;;4.57;3.17;;;;;;;22.92;42.08;102331.25;4988770;28;20141;-89
2021/06/14 03:07:32;;;;;;;4.78;3.30;;;;;;;22.92;42.01;102328.63;4984989;28;20069;-90
2021/06/14 03:09:58;;;;;;;5.55;3.45;;;;;;;22.91;42.17;102334.78;4994993;28;20026;-90
2021/06/14 03:12:27;;;;;;;5.13;3.25;;;;;;;22.92;41.80;102330.38;4978739;28;20030;-89
2021/06/14 03:14:53;;;;;;;6.43;3.50;;;;;;;22.90;41.79;102324.28;4963112;28;20026;-89
2021/06/14 03:17:19;;;;;;;3.80;3.20;;;;;;;22.90;42.23;102335.63;4996175;28;20030;-90
2021/06/14 03:19:47;;;;;;;4.15;3.00;;;;;;;22.89;42.14;102328.66;4997961;28;20077;-89
2021/06/14 03:22:13;;;;;;;5.43;3.40;;;;;;;22.88;42.04;102324.28;4996466;28;20023;-89
2021/06/14 03:24:39;;;;;;;5.28;3.20;;;;;;;22.90;41.88;102326.91;4978549;28;20031;-90
2021/06/14 03:27:06;;;;;;;3.97;2.80;;;;;;;22.90;41.79;102326.91;4994187;28;20444;-90
2021/06/14 03:29:32;;;;;;;5.15;3.50;;;;;;;22.89;42.09;102318.16;4977456;28;20045;-90
2021/06/14 03:31:59;;;;;;;4.30;3.08;;;;;;;22.89;41.83;102330.44;4994137;28;20473;-89
2021/06/14 03:34:27;;;;;;;4.95;3.10;;;;;;;22.91;42.04;102339.16;4993605;28;20019;-90
2021/06/14 03:36:53;;;;;;;5.22;3.60;;;;;;;22.89;42.13;102331.28;4977339;28;20477;-90
2021/06/14 03:39:19;;;;;;;5.60;3.53;;;;;;;22.88;41.86;102336.53;4993092;28;20062;-89
2021/06/14 03:41:46;;;;;;;4.75;3.58;;;;;;;22.86;41.82;102328.66;4993788;28;20077;-89
2021/06/14 03:44:12;;;;;;;4.43;2.97;;;;;;;22.87;42.32;102335.69;4998536;28;20034;-90
2021/06/14 03:46:38;;;;;;;8.10;3.80;;;;;;;22.85;41.74;102326.94;4997338;28;20234;-89
2021/06/14 03:49:05;;;;;;;5.63;3.25;;;;;;;22.85;41.87;102336.59;5006580;28;20031;-88
2021/06/14 03:51:31;;;;;;;6.38;3.45;;;;;;;22.86;42.05;102344.41;5005409;28;20035;-89
2021/06/14 03:53:57;;;;;;;6.20;3.30;;;;;;;22.86;42.05;102346.19;4996759;28;20029;-89
2021/06/14 03:56:24;;;;;;;5.32;3.70;;;;;;;22.86;41.84;102338.31;4997247;28;20393;-89
2021/06/14 03:58:49;;;;;;;5.95;3.60;;;;;;;22.85;41.67;102344.44;4997253;28;20027;-89
2021/06/14 04:01:15;;;;;;;4.65;3.40;;;;;;;22.85;42.04;102347.06;4980532;28;20030;-89
2021/06/14 04:03:42;;;;;;;5.28;3.75;;;;;;;22.83;41.85;102347.09;4981201;28;20121;-90
2021/06/14 04:06:07;;;;;;;4.80;3.55;;;;;;;22.84;42.14;102342.69;4996719;28;20085;-89
2021/06/14 04:08:36;;;;;;;5.82;3.58;;;;;;;22.84;41.84;102332.19;4997007;28;20030;-90
2021/06/14 04:11:02;;;;;;;6.95;3.72;;;;;;;22.84;42.15;102327.81;4996714;28;20030;-90
2021/06/14 04:13:28;;;;;;;4.72;3.35;;;;;;;22.84;42.08;102327.81;4996656;28;20023;-90
2021/06/14 04:15:53;;;;;;;6.05;3.60;;;;;;;22.83;41.92;102314.72;4996585;28;20544;-90
2021/06/14 04:18:18;;;;;;;6.43;3.72;;;;;;;22.85;42.19;102326.09;4980973;28;20038;-90
2021/06/14 04:20:44;;;;;;;5.45;3.63;;;;;;;22.84;42.04;102322.56;4997231;28;20026;-90
2021/06/14 04:23:10;;;;;;;6.80;3.70;;;;;;;22.86;42.36;102323.41;4997845;28;20027;-90
2021/06/14 04:25:35;;;;;;;5.97;3.72;;;;;;;22.87;42.21;102311.19;4982302;28;20027;-89
2021/06/14 04:28:03;;;;;;;4.22;3.60;;;;;;;22.93;41.86;102321.63;4982771;28;20085;-89
2021/06/14 04:30:28;;;;;;;5.68;4.07;;;;;;;22.95;41.96;102307.63;4999734;28;20046;-89
2021/06/14 04:32:54;;;;;;;7.28;3.58;;;;;;;23.00;41.49;102312.84;5001653;28;20014;-89
2021/06/14 04:35:20;;;;;;;6.65;3.88;;;;;;;23.00;41.76;102304.97;4991168;28;20035;-89
2021/06/14 04:37:45;;;;;;;6.82;3.95;;;;;;;23.03;41.48;102310.19;4987782;28;20038;-90
2021/06/14 04:40:11;;;;;;;4.70;3.30;;;;;;;23.05;41.59;102312.81;5014244;28;20027;-90
2021/06/14 04:42:37;;;;;;;5.18;3.75;;;;;;;23.08;41.48;102308.41;4998136;28;20034;-90
2021/06/14 04:45:04;;;;;;;6.80;4.45;;;;;;;23.09;41.92;102299.63;4998481;28;20041;-89
2021/06/14 04:47:29;;;;;;;7.28;3.97;;;;;;;23.14;41.35;102297.81;5005770;28;20030;-90
2021/06/14 04:49:57;;;;;;;5.72;3.58;;;;;;;23.17;41.44;102291.69;5006612;28;20086;-90
2021/06/14 04:52:23;;;;;;;6.35;3.83;;;;;;;23.20;41.44;102296.91;5002195;28;20436;-88
2021/06/14 04:54:48;;;;;;;5.07;3.88;;;;;;;23.22;41.55;102302.16;4999651;28;20061;-90
2021/06/14 04:57:14;;;;;;;4.72;3.40;;;;;;;23.24;41.49;102303.00;5003083;28;20026;-90
2021/06/14 04:59:39;;;;;;;7.22;4.43;;;;;;;23.26;41.22;102303.88;4983037;28;20066;-89
2021/06/14 05:02:05;;;;;;;6.82;4.13;;;;;;;23.23;41.44;102301.25;4971841;28;20511;-92
2021/06/14 05:04:31;;;;;;;9.93;4.82;;;;;;;23.20;40.95;102302.16;5001303;28;20027;-91
2021/06/14 05:06:57;;;;;;;8.55;4.40;;;;;;;23.18;41.15;102299.53;5000220;28;20109;-92
2021/06/14 05:09:23;;;;;;;6.72;4.45;;;;;;;23.22;41.03;102302.16;4999412;28;20546;-94
2021/06/14 05:11:49;;;;;;;7.47;4.72;;;;;;;23.22;41.22;102289.03;4998895;28;20023;-92
2021/06/14 05:14:15;;;;;;;21.13;5.53;;;;;;;23.18;41.59;102289.03;5008597;28;20033;-91
2021/06/14 05:16:42;;;;;;;14.45;5.50;;;;;;;23.14;41.56;102282.06;5012463;28;20034;-91
2021/06/14 05:19:08;;;;;;;12.65;5.60;;;;;;;23.09;41.52;102278.63;5009853;28;20014;-93
2021/06/14 05:21:33;;;;;;;13.05;5.10;;;;;;;23.07;41.37;102269.91;4999007;28;20037;-92
2021/06/14 05:24:02;;;;;;;7.00;4.38;;;;;;;23.08;41.16;102270.75;5003892;28;20030;-92
2021/06/14 05:26:33;;;;;;;11.93;4.85;;;;;;;23.07;40.99;102264.66;5004049;28;20022;-90
2021/06/14 05:29:06;;;;;;;7.78;5.00;;;;;;;23.06;41.09;102260.28;4986622;28;20111;-93
2021/06/14 05:31:38;;;;;;;;;;;;;;;23.08;41.17;102263.78;5003449;28;20394;-93
2021/06/14 05:34:06;;;;;;;15.13;5.22;;;;;;;23.07;41.25;102254.13;4998070;28;20345;-92
2021/06/14 05:36:44;;;;;;;10.43;4.97;;;;;;;23.10;41.16;102255.88;4997270;28;20121;-92
2021/06/14 05:39:15;;;;;;;13.85;4.95;;;;;;;23.09;40.74;102251.50;4982728;28;20496;-93
2021/06/14 05:45:04;;;;;;;14.70;4.97;;;;;;;23.12;40.54;102252.31;4999543;28;20189;-92
2021/06/14 05:47:46;;;;;;;12.02;5.22;;;;;;;23.15;40.40;102241.81;4996141;28;20125;-93
2021/06/14 05:50:26;;;;;;;12.68;4.72;;;;;;;23.15;40.32;102233.94;4997474;28;20032;-92
2021/06/14 06:03:56;;;;;;;10.68;4.25;;;;;;;23.25;39.70;102221.56;5005252;28;20056;-92
2021/06/14 06:06:34;;;;;;;12.88;4.78;;;;;;;23.28;40.15;102212.75;4996431;28;20034;-93
2021/06/14 06:09:00;;;;;;;10.63;4.60;;;;;;;23.29;39.62;102223.25;4997811;28;20113;-92
2021/06/14 06:11:25;;;;;;;11.95;4.78;;;;;;;23.30;39.41;102201.38;4980726;28;20065;-95
2021/06/14 06:13:51;;;;;;;7.97;4.05;;;;;;;23.30;39.57;102193.50;4979897;28;20473;-94
2021/06/14 06:16:16;;;;;;;10.98;4.60;;;;;;;23.33;39.40;102192.59;4996368;28;20029;-93
2021/06/14 06:25:37;;;;;;;10.50;4.72;;;;;;;23.39;39.37;102206.50;4997529;28;20105;-94
2021/06/14 07:02:41;;;;;;;11.05;4.35;;;;;;;23.64;39.23;102197.44;4907840;29;20058;-94
2021/06/14 07:05:07;;;;;;;10.88;4.68;;;;;;;23.61;38.87;102187.84;4938537;28;20054;-92
2021/06/14 07:07:36;;;;;;;8.38;4.15;;;;;;;23.59;37.99;102185.22;5002043;28;20041;-93
2021/06/14 07:10:04;;;;;;;13.32;4.75;;;;;;;23.55;37.89;102187.94;5001682;28;20111;-93
2021/06/14 07:12:34;;;;;;;14.15;4.25;;;;;;;23.53;37.79;102182.69;5001686;28;20027;-94
2021/06/14 07:15:00;;;;;;;8.63;4.45;;;;;;;23.54;37.41;102176.56;5000660;28;20025;-93
2021/06/14 07:17:26;;;;;;;8.68;4.10;;;;;;;23.60;37.61;102183.47;4982773;28;20031;-89
2021/06/14 07:19:52;;;;;;;10.15;4.35;;;;;;;23.65;37.42;102186.91;4999456;28;20027;-90
2021/06/14 07:22:17;;;;;;;11.32;4.00;;;;;;;23.67;37.40;102176.38;4997872;28;20037;-94
2021/06/14 07:24:43;;;;;;;10.45;4.20;;;;;;;23.68;37.02;102181.59;4981527;28;20549;-89
2021/06/14 07:27:08;;;;;;;10.85;4.30;;;;;;;23.67;36.79;102174.63;4999654;28;20033;-90
2021/06/14 07:29:34;;;;;;;11.63;4.65;;;;;;;23.67;36.92;102179.88;4993998;28;20030;-86
2021/06/14 07:31:59;;;;;;;7.78;4.03;;;;;;;23.70;36.94;102187.72;4997659;28;20049;-91
2021/06/14 07:34:25;;;;;;;13.20;3.95;;;;;;;23.72;36.71;102187.69;4980425;28;20038;-90
2021/06/14 07:36:51;;;;;;;9.63;3.88;;;;;;;23.72;36.67;102187.69;4998002;28;20069;-89
2021/06/14 07:42:38;;;;;;;11.38;4.82;;;;;;;23.67;36.16;102202.66;5006555;28;20089;-88
2021/06/14 07:45:06;;;;;;;13.32;4.88;;;;;;;23.67;36.55;102203.53;4997292;28;20466;-90
2021/06/14 07:47:31;;;;;;;12.05;4.63;;;;;;;23.68;36.63;102196.50;5000059;28;20026;-89
2021/06/14 07:49:56;;;;;;;11.30;4.78;;;;;;;23.70;36.19;102203.47;4988361;28;20117;-88
2021/06/14 07:52:22;;;;;;;10.70;4.57;;;;;;;23.72;36.24;102200.84;5015227;28;20077;-86
2021/06/14 07:54:47;;;;;;;10.70;4.40;;;;;;;23.78;36.45;102201.66;4987564;28;20034;-92
2021/06/14 07:57:13;;;;;;;14.43;4.43;;;;;;;23.81;36.57;102201.59;4998068;28;20053;-90
2021/06/14 07:59:38;;;;;;;13.10;4.80;;;;;;;23.84;36.61;102210.34;4996968;28;20023;-90
2021/06/14 08:02:07;;;;;;;13.00;4.75;;;;;;;23.85;36.23;102206.84;4995670;28;20110;-92
2021/06/14 08:04:32;;;;;;;8.45;4.25;;;;;;;23.84;36.35;102203.31;4996585;28;20031;-92
2021/06/14 08:06:58;;;;;;;9.10;4.80;;;;;;;23.84;36.46;102207.72;4997848;28;20037;-93
2021/06/14 08:09:30;;;;;;;12.43;4.57;;;;;;;23.84;36.51;102205.94;4995637;28;20050;-91
2021/06/14 08:11:58;;;;;;;12.90;4.60;;;;;;;23.83;36.20;102206.84;4988484;28;20038;-94
2021/06/14 08:14:23;;;;;;;11.77;4.70;;;;;;;23.83;36.22;102203.34;5005648;28;20026;-91
2021/06/14 08:16:49;;;;;;;10.15;4.55;;;;;;;23.82;35.98;102199.84;4996083;28;20604;-93
2021/06/14 08:25:04;;;;;;;9.70;4.10;;;;;;;23.83;34.97;102205.97;4996708;28;20097;-87
2021/06/14 08:27:47;;;;;;;9.35;4.32;;;;;;;23.84;34.78;102202.44;4995104;28;20034;-88
2021/06/14 08:30:17;;;;;;;12.52;4.22;;;;;;;23.87;34.86;102199.78;4998782;28;20026;-87
2021/06/14 08:32:43;;;;;;;14.90;4.50;;;;;;;23.84;34.53;102192.78;4999164;28;20018;-87
2021/06/14 08:35:15;;;;;;;13.77;4.60;;;;;;;23.89;34.73;102195.34;4998308;28;20018;-87
2021/06/14 08:37:45;;;;;;;10.95;4.53;;;;;;;23.89;34.72;102182.22;4982584;28;20389;-88
2021/06/14 08:40:12;;;;;;;10.93;3.80;;;;;;;23.90;34.79;102184.81;4998734;28;20030;-88
2021/06/14 08:42:38;;;;;;;13.18;4.50;;;;;;;23.90;34.64;102186.59;4998831;28;20030;-88
2021/06/14 08:45:06;;;;;;;11.30;4.43;;;;;;;23.89;34.40;102198.88;4998692;28;20034;-88
2021/06/14 08:47:35;;;;;;;7.43;3.80;;;;;;;23.90;34.35;102190.09;4998656;28;20109;-88
2021/06/14 08:50:01;;;;;;;9.82;4.20;;;;;;;23.91;33.86;102190.94;4998112;28;20437;-89
2021/06/14 08:52:26;;;;;;;8.23;3.72;;;;;;;23.89;33.47;102192.72;4997961;28;20040;-89
2021/06/14 08:54:55;;;;;;;6.53;3.50;;;;;;;23.89;33.16;102190.09;5000420;28;20485;-90
2021/06/14 08:57:21;;;;;;;9.50;4.03;;;;;;;23.88;32.98;102183.97;5011806;28;20033;-87
2021/06/14 08:59:47;;;;;;;13.65;4.35;;;;;;;23.90;32.93;102186.59;4998238;28;20031;-86
2021/06/14 09:02:12;;;;;;;13.73;4.15;;;;;;;23.92;32.90;102182.19;4997237;28;20119;-87
2021/06/14 09:04:38;;;;;;;9.07;3.78;;;;;;;23.92;33.22;102174.28;4982105;28;20030;-86
2021/06/14 09:07:04;;;;;;;10.30;4.20;;;;;;;23.93;33.17;102174.28;4999622;28;20358;-87
2021/06/14 09:09:32;;;;;;;9.30;4.03;;;;;;;23.95;33.00;102176.88;4997928;28;20393;-86
2021/06/14 09:11:59;;;;;;;7.45;4.35;;;;;;;23.97;33.10;102177.72;5001931;28;20038;-88
2021/06/14 09:14:38;;;;;;;8.77;4.25;;;;;;;23.98;32.86;102171.56;4998614;28;20052;-88
2021/06/14 09:17:06;;;;;;;9.18;4.00;;;;;;;23.98;33.06;102172.44;4998737;28;20084;-88
2021/06/14 09:19:34;;;;;;;12.38;4.30;;;;;;;23.97;33.04;102161.94;4997737;28;20050;-88
2021/06/14 09:22:20;;;;;;;9.90;4.28;;;;;;;23.98;32.98;102164.56;4996956;28;20057;-87
2021/06/14 09:25:05;;;;;;;8.23;3.80;;;;;;;23.97;32.66;102157.53;4996488;28;20100;-87
2021/06/14 09:27:39;;;;;;;11.70;4.55;;;;;;;23.99;32.67;102154.91;4998832;28;20037;-87
2021/06/14 09:30:20;;;;;;;8.60;4.05;;;;;;;23.99;32.32;102152.25;4999412;28;20485;-86
2021/06/14 09:32:55;;;;;;;10.65;4.05;;;;;;;23.98;32.23;102151.41;4997442;28;20094;-86
2021/06/14 09:35:23;;;;;;;10.55;4.10;;;;;;;23.96;32.02;102147.94;4997943;28;20481;-87
2021/06/14 09:38:00;;;;;;;9.35;3.90;;;;;;;23.98;32.15;102153.16;4998456;28;20077;-87
2021/06/14 09:40:31;;;;;;;10.35;3.80;;;;;;;23.98;31.67;102155.81;5010015;28;20031;-87
2021/06/14 09:42:57;;;;;;;7.30;3.70;;;;;;;23.96;31.91;102153.19;4998363;28;20031;-87
2021/06/14 09:45:24;;;;;;;8.77;3.67;;;;;;;23.98;31.85;102145.28;4997562;28;20548;-89
2021/06/14 09:47:52;;;;;;;8.93;3.80;;;;;;;24.01;31.87;102145.22;4999452;28;20481;-87
2021/06/14 09:50:27;;;;;;;13.13;3.88;;;;;;;24.01;31.68;102140.81;4997504;28;20022;-88
2021/06/14 09:53:09;;;;;;;6.93;3.35;;;;;;;24.03;32.31;102141.66;4996569;28;20054;-87
2021/06/14 09:55:34;;;;;;;8.05;3.45;;;;;;;24.05;32.13;102128.50;4998007;28;20022;-89
2021/06/14 09:58:21;;;;;;;7.40;3.53;;;;;;;24.08;32.16;102130.22;4998965;28;20026;-86
2021/06/14 10:00:58;;;;;;;7.57;3.97;;;;;;;24.08;32.35;102132.84;4997307;28;20514;-86
2021/06/14 10:03:26;;;;;;;8.23;3.42;;;;;;;24.06;32.16;102132.00;4997274;28;20034;-88
2021/06/14 10:05:54;;;;;;;9.05;3.88;;;;;;;24.07;32.21;102126.72;4984838;28;20026;-88
2021/06/14 10:08:30;;;;;;;10.23;3.90;;;;;;;24.09;32.04;102131.97;5001444;28;20030;-88
2021/06/14 10:11:18;;;;;;;9.70;4.00;;;;;;;24.06;31.72;102129.38;4999004;28;20018;-87
2021/06/14 10:13:46;;;;;;;9.23;3.80;;;;;;;24.04;32.08;102134.69;5003670;28;20384;-86
2021/06/14 10:16:13;;;;;;;5.97;3.35;;;;;;;24.06;31.95;102137.25;5005279;28;20080;-86
2021/06/14 10:18:59;;;;;;;10.10;3.40;;;;;;;24.03;32.22;102132.91;4999957;28;20086;-92
2021/06/14 10:21:33;;;;;;;9.32;3.70;;;;;;;24.07;32.04;102134.63;5014971;28;20030;-89
2021/06/14 10:24:06;;;;;;;7.63;3.72;;;;;;;24.07;31.98;102139.00;5013503;28;20026;-89
2021/06/14 10:26:33;;;;;;;;;;;;;;;24.09;32.00;102148.59;5009019;28;20046;-92
2021/06/14 10:28:58;;;;;;;10.68;3.97;;;;;;;24.08;32.27;102138.97;5005330;28;19921;-92
2021/06/14 10:31:24;;;;;;;7.38;3.83;;;;;;;24.10;32.34;102144.22;5001216;28;20030;-93
2021/06/14 10:33:52;;;;;;;8.10;4.00;;;;;;;24.09;32.20;102140.72;4998762;28;20023;-92
2021/06/14 10:36:23;;;;;;;10.43;4.20;;;;;;;24.13;31.97;102146.81;4997398;28;20023;-90
2021/06/14 10:38:51;;;;;;;8.80;3.50;;;;;;;24.13;32.64;102152.94;4996119;28;20054;-90
2021/06/14 10:41:19;;;;;;;5.70;3.40;;;;;;;24.11;32.07;102146.81;4996776;28;20042;-91
2021/06/14 10:43:45;;;;;;;7.35;3.85;;;;;;;24.07;32.21;102145.13;4997217;28;20094;-89
2021/06/14 10:46:12;;;;;;;8.32;3.58;;;;;;;24.07;32.05;102145.13;4995888;28;20037;-92
2021/06/14 10:48:39;;;;;;;8.15;3.70;;;;;;;24.08;31.51;102151.25;4995449;28;20093;-88
2021/06/14 10:51:13;;;;;;;7.32;3.83;;;;;;;24.07;31.54;102144.28;4995344;28;20026;-88
2021/06/14 10:53:38;;;;;;;10.82;4.15;;;;;;;24.08;31.72;102144.22;4995317;28;20113;-88
2021/06/14 10:56:07;;;;;;;10.38;3.83;;;;;;;24.07;31.61;102145.13;4994050;28;20062;-88
2021/06/14 10:58:32;;;;;;;8.25;3.60;;;;;;;24.06;31.37;102146.00;4995202;28;20121;-87
2021/06/14 11:01:16;;;;;;;6.10;3.55;;;;;;;24.05;31.83;102152.16;4995187;28;20105;-88
2021/06/14 11:10:29;;;;;;;6.15;3.40;;;;;;;24.08;31.99;102141.59;4981912;28;20135;-89
2021/06/14 11:13:15;;;;;;;8.45;3.40;;;;;;;24.07;32.22;102139.00;4994338;28;20469;-88
2021/06/14 11:15:43;;;;;;;9.15;3.67;;;;;;;24.08;32.22;102141.59;4993537;28;20026;-89
2021/06/14 11:18:23;;;;;;;8.13;3.75;;;;;;;24.07;32.19;102134.63;4994030;28;20104;-88
2021/06/14 11:21:04;;;;;;;7.38;3.25;;;;;;;24.10;32.36;102141.56;4994343;28;20026;-89
2021/06/14 11:23:30;;;;;;;9.90;3.42;;;;;;;24.09;32.02;102134.59;4993681;28;20034;-88
2021/06/14 11:26:01;;;;;;;6.68;3.40;;;;;;;24.11;32.48;102140.69;4977623;28;20041;-89
2021/06/14 11:28:35;;;;;;;6.88;3.42;;;;;;;24.09;32.69;102139.84;4994056;28;20026;-89
2021/06/14 11:31:16;;;;;;;6.90;3.30;;;;;;;24.12;32.41;102145.06;4994566;28;20469;-90
2021/06/14 11:33:43;;;;;;;7.20;3.20;;;;;;;24.11;32.47;102145.97;4995082;28;20034;-88
2021/06/14 11:36:19;;;;;;;5.95;3.50;;;;;;;24.12;32.23;102148.53;4995223;28;20027;-89
2021/06/14 11:38:46;;;;;;;6.93;3.08;;;;;;;24.10;32.49;102152.09;4994852;28;20519;-89
2021/06/14 11:41:11;;;;;;;7.60;3.10;;;;;;;24.10;32.70;102139.81;4995775;28;20022;-89
2021/06/14 11:43:37;;;;;;;10.35;3.53;;;;;;;24.11;32.31;102140.69;4996214;28;20030;-90
2021/06/14 11:46:17;;;;;;;7.63;3.50;;;;;;;24.10;32.42;102134.53;4998128;28;20062;-89
2021/06/14 11:48:47;;;;;;;7.13;3.33;;;;;;;24.09;32.75;102140.72;4998989;28;20023;-89
2021/06/14 11:51:18;;;;;;;6.90;3.20;;;;;;;24.07;32.64;102121.47;4994205;28;20027;-89
2021/06/14 11:53:53;;;;;;;7.95;3.65;;;;;;;24.07;32.61;102128.50;4984535;28;20409;-89
2021/06/14 11:56:20;;;;;;;6.85;3.58;;;;;;;24.05;32.77;102127.66;4997556;28;20050;-90
2021/06/14 11:58:57;;;;;;;8.35;3.20;;;;;;;24.08;32.96;102127.59;4998837;28;20022;-89
2021/06/14 12:01:35;;;;;;;6.65;3.35;;;;;;;24.08;32.56;102124.94;4997262;28;20100;-93
2021/06/14 12:04:04;;;;;;;8.48;3.42;;;;;;;24.12;33.02;102131.91;4999996;28;20094;-92
2021/06/14 12:06:42;;;;;;;7.75;3.20;;;;;;;24.14;32.95;102133.59;5001801;28;20101;-93
2021/06/14 12:09:16;;;;;;;8.48;3.15;;;;;;;24.16;32.93;102128.34;5000138;28;20026;-94
2021/06/14 12:11:42;;;;;;;8.02;3.17;;;;;;;24.17;32.64;102123.06;5000516;28;20070;-91
2021/06/14 12:14:15;;;;;;;7.00;3.10;;;;;;;24.20;32.98;102122.13;5000282;28;20026;-91
2021/06/14 12:16:41;;;;;;;;;;;;;;;24.21;32.95;102126.47;5002279;28;20099;-90
2021/06/14 12:19:07;;;;;;;6.55;3.40;;;;;;;24.20;33.30;102130.88;5000893;28;20331;-92
2021/06/14 12:21:32;;;;;;;9.02;3.33;;;;;;;24.23;33.26;102136.06;4983431;28;20030;-90
2021/06/14 12:23:58;;;;;;;4.80;2.97;;;;;;;24.22;33.13;102139.63;5000186;28;20141;-92
2021/06/14 12:26:24;;;;;;;9.13;3.50;;;;;;;24.20;33.25;102136.13;4999796;28;20397;-92
2021/06/14 12:28:49;;;;;;;9.70;3.17;;;;;;;24.17;33.20;102136.19;4984481;28;20031;-92
2021/06/14 12:31:15;;;;;;;6.18;3.05;;;;;;;24.12;33.20;102129.28;5002442;28;20053;-93
2021/06/14 12:33:43;;;;;;;8.38;3.20;;;;;;;24.10;33.00;102126.66;5005662;28;20040;-86
2021/06/14 12:36:11;;;;;;;6.63;3.10;;;;;;;24.13;33.04;102129.25;5013966;28;20073;-91
2021/06/14 12:38:37;;;;;;;8.68;3.30;;;;;;;24.12;32.88;102121.38;5003290;28;20030;-91
2021/06/14 12:41:04;;;;;;;6.25;3.40;;;;;;;24.13;32.78;102120.50;4973355;28;20065;-90
2021/06/14 12:43:35;;;;;;;9.43;3.42;;;;;;;24.15;33.04;102118.69;5013058;28;20026;-89